sensor_id;sensor_type;location;lat;lon;timestamp;P1;durP1;ratioP1;P2;durP2;ratioP2
51686;SDS011;37774;52.192;4.584;2022-08-03T00:02:03;12.95;;;2.03;;
51686;SDS011;37774;52.192;4.584;2022-08-03T00:04:30;12.90;;;1.77;;
51686;SDS011;37774;52.192;4.584;2022-08-03T00:06:56;15.48;;;1.83;;
51686;SDS011;37774;52.192;4.584;2022-08-03T00:09:23;13.95;;;2.00;;
51686;SDS011;37774;52.192;4.584;2022-08-03T00:11:50;19.05;;;2.67;;
51686;SDS011;37774;52.192;4.584;2022-08-03T00:14:16;9.07;;;2.50;;
51686;SDS011;37774;52.192;4.584;2022-08-03T00:16:43;12.98;;;2.03;;
51686;SDS011;37774;52.192;4.584;2022-08-03T00:19:11;5.60;;;2.13;;
51686;SDS011;37774;52.192;4.584;2022-08-03T00:21:38;10.95;;;1.42;;
51686;SDS011;37774;52.192;4.584;2022-08-03T00:24:05;13.23;;;2.10;;
51686;SDS011;37774;52.192;4.584;2022-08-03T00:26:32;13.13;;;2.00;;
51686;SDS011;37774;52.192;4.584;2022-08-03T00:28:58;24.17;;;2.38;;
51686;SDS011;37774;52.192;4.584;2022-08-03T00:31:25;6.30;;;1.73;;
51686;SDS011;37774;52.192;4.584;2022-08-03T00:33:52;7.78;;;1.85;;
51686;SDS011;37774;52.192;4.584;2022-08-03T00:36:20;13.65;;;2.20;;
51686;SDS011;37774;52.192;4.584;2022-08-03T00:38:46;8.57;;;2.17;;
51686;SDS011;37774;52.192;4.584;2022-08-03T00:41:13;8.40;;;2.28;;
51686;SDS011;37774;52.192;4.584;2022-08-03T00:43:40;16.88;;;2.40;;
51686;SDS011;37774;52.192;4.584;2022-08-03T00:46:07;15.13;;;2.42;;
51686;SDS011;37774;52.192;4.584;2022-08-03T00:48:34;12.18;;;2.30;;
51686;SDS011;37774;52.192;4.584;2022-08-03T00:51:00;10.77;;;2.10;;
51686;SDS011;37774;52.192;4.584;2022-08-03T00:53:29;9.15;;;1.70;;
51686;SDS011;37774;52.192;4.584;2022-08-03T00:55:56;7.68;;;1.50;;
51686;SDS011;37774;52.192;4.584;2022-08-03T00:58:23;20.15;;;2.40;;
51686;SDS011;37774;52.192;4.584;2022-08-03T01:00:50;9.20;;;2.70;;
51686;SDS011;37774;52.192;4.584;2022-08-03T01:03:17;17.52;;;2.28;;
51686;SDS011;37774;52.192;4.584;2022-08-03T01:08:45;12.55;;;2.15;;
51686;SDS011;37774;52.192;4.584;2022-08-03T01:11:20;10.18;;;2.28;;
51686;SDS011;37774;52.192;4.584;2022-08-03T01:13:55;13.45;;;2.70;;
51686;SDS011;37774;52.192;4.584;2022-08-03T01:16:29;15.02;;;2.40;;
51686;SDS011;37774;52.192;4.584;2022-08-03T01:18:59;17.15;;;2.58;;
51686;SDS011;37774;52.192;4.584;2022-08-03T01:21:37;15.38;;;2.78;;
51686;SDS011;37774;52.192;4.584;2022-08-03T01:24:20;12.43;;;2.60;;
51686;SDS011;37774;52.192;4.584;2022-08-03T01:27:02;15.45;;;2.22;;
51686;SDS011;37774;52.192;4.584;2022-08-03T01:32:34;8.88;;;2.33;;
51686;SDS011;37774;52.192;4.584;2022-08-03T01:35:08;13.00;;;3.33;;
51686;SDS011;37774;52.192;4.584;2022-08-03T01:37:38;14.05;;;2.88;;
51686;SDS011;37774;52.192;4.584;2022-08-03T01:40:09;18.15;;;2.92;;
51686;SDS011;37774;52.192;4.584;2022-08-03T01:42:39;12.98;;;2.40;;
51686;SDS011;37774;52.192;4.584;2022-08-03T01:45:09;18.35;;;3.00;;
51686;SDS011;37774;52.192;4.584;2022-08-03T01:47:39;15.27;;;2.72;;
51686;SDS011;37774;52.192;4.584;2022-08-03T01:50:07;12.27;;;2.45;;
51686;SDS011;37774;52.192;4.584;2022-08-03T01:52:36;7.10;;;2.40;;
51686;SDS011;37774;52.192;4.584;2022-08-03T01:55:06;14.85;;;3.30;;
51686;SDS011;37774;52.192;4.584;2022-08-03T01:57:35;8.80;;;2.40;;
51686;SDS011;37774;52.192;4.584;2022-08-03T02:00:05;17.00;;;2.83;;
51686;SDS011;37774;52.192;4.584;2022-08-03T02:02:35;18.02;;;2.70;;
51686;SDS011;37774;52.192;4.584;2022-08-03T02:05:03;14.38;;;2.45;;
51686;SDS011;37774;52.192;4.584;2022-08-03T02:07:32;6.40;;;2.08;;
51686;SDS011;37774;52.192;4.584;2022-08-03T02:10:00;13.25;;;2.80;;
51686;SDS011;37774;52.192;4.584;2022-08-03T02:12:30;10.80;;;3.63;;
51686;SDS011;37774;52.192;4.584;2022-08-03T02:14:58;13.70;;;2.63;;
51686;SDS011;37774;52.192;4.584;2022-08-03T02:17:27;14.70;;;2.60;;
51686;SDS011;37774;52.192;4.584;2022-08-03T02:19:56;14.23;;;2.63;;
51686;SDS011;37774;52.192;4.584;2022-08-03T02:22:25;10.93;;;2.70;;
51686;SDS011;37774;52.192;4.584;2022-08-03T02:24:53;19.50;;;2.45;;
51686;SDS011;37774;52.192;4.584;2022-08-03T02:27:21;11.32;;;3.70;;
51686;SDS011;37774;52.192;4.584;2022-08-03T02:29:50;13.85;;;3.22;;
51686;SDS011;37774;52.192;4.584;2022-08-03T02:32:22;15.95;;;3.30;;
51686;SDS011;37774;52.192;4.584;2022-08-03T02:34:54;11.27;;;2.45;;
51686;SDS011;37774;52.192;4.584;2022-08-03T02:37:26;11.85;;;2.45;;
51686;SDS011;37774;52.192;4.584;2022-08-03T02:39:57;10.05;;;2.33;;
51686;SDS011;37774;52.192;4.584;2022-08-03T02:42:27;10.63;;;3.03;;
51686;SDS011;37774;52.192;4.584;2022-08-03T02:44:56;10.70;;;3.08;;
51686;SDS011;37774;52.192;4.584;2022-08-03T02:47:27;24.02;;;2.75;;
51686;SDS011;37774;52.192;4.584;2022-08-03T02:49:55;8.98;;;2.40;;
51686;SDS011;37774;52.192;4.584;2022-08-03T02:52:25;16.45;;;2.95;;
51686;SDS011;37774;52.192;4.584;2022-08-03T02:54:55;18.75;;;3.88;;
51686;SDS011;37774;52.192;4.584;2022-08-03T02:57:25;11.75;;;3.10;;
51686;SDS011;37774;52.192;4.584;2022-08-03T02:59:54;12.63;;;2.47;;
51686;SDS011;37774;52.192;4.584;2022-08-03T03:02:22;10.75;;;3.25;;
51686;SDS011;37774;52.192;4.584;2022-08-03T03:04:50;8.70;;;2.35;;
51686;SDS011;37774;52.192;4.584;2022-08-03T03:07:19;12.57;;;3.10;;
51686;SDS011;37774;52.192;4.584;2022-08-03T03:09:47;8.27;;;2.90;;
51686;SDS011;37774;52.192;4.584;2022-08-03T03:12:14;14.25;;;2.65;;
51686;SDS011;37774;52.192;4.584;2022-08-03T03:14:43;17.90;;;3.33;;
51686;SDS011;37774;52.192;4.584;2022-08-03T03:17:10;11.20;;;2.88;;
51686;SDS011;37774;52.192;4.584;2022-08-03T03:19:37;13.15;;;2.97;;
51686;SDS011;37774;52.192;4.584;2022-08-03T03:22:06;17.10;;;3.90;;
51686;SDS011;37774;52.192;4.584;2022-08-03T03:24:35;15.25;;;3.78;;
51686;SDS011;37774;52.192;4.584;2022-08-03T03:27:03;28.35;;;4.18;;
51686;SDS011;37774;52.192;4.584;2022-08-03T03:29:31;19.95;;;4.40;;
51686;SDS011;37774;52.192;4.584;2022-08-03T03:31:59;11.02;;;3.70;;
51686;SDS011;37774;52.192;4.584;2022-08-03T03:34:27;23.33;;;5.03;;
51686;SDS011;37774;52.192;4.584;2022-08-03T03:36:55;15.00;;;3.30;;
51686;SDS011;37774;52.192;4.584;2022-08-03T03:39:22;10.63;;;2.88;;
51686;SDS011;37774;52.192;4.584;2022-08-03T03:41:50;11.43;;;3.53;;
51686;SDS011;37774;52.192;4.584;2022-08-03T03:44:17;19.65;;;4.00;;
51686;SDS011;37774;52.192;4.584;2022-08-03T03:46:44;12.48;;;2.92;;
51686;SDS011;37774;52.192;4.584;2022-08-03T03:49:11;17.13;;;3.30;;
51686;SDS011;37774;52.192;4.584;2022-08-03T03:51:38;12.05;;;3.17;;
51686;SDS011;37774;52.192;4.584;2022-08-03T03:54:04;12.57;;;2.78;;
51686;SDS011;37774;52.192;4.584;2022-08-03T03:56:31;17.45;;;3.10;;
51686;SDS011;37774;52.192;4.584;2022-08-03T03:59:00;15.73;;;3.10;;
51686;SDS011;37774;52.192;4.584;2022-08-03T04:01:26;19.70;;;3.72;;
51686;SDS011;37774;52.192;4.584;2022-08-03T04:03:53;8.20;;;2.65;;
51686;SDS011;37774;52.192;4.584;2022-08-03T04:06:20;10.07;;;3.00;;
51686;SDS011;37774;52.192;4.584;2022-08-03T04:09:05;29.17;;;4.00;;
51686;SDS011;37774;52.192;4.584;2022-08-03T04:11:51;10.27;;;3.10;;
51686;SDS011;37774;52.192;4.584;2022-08-03T04:14:21;17.70;;;3.17;;
51686;SDS011;37774;52.192;4.584;2022-08-03T04:16:53;13.50;;;3.13;;
51686;SDS011;37774;52.192;4.584;2022-08-03T04:19:24;12.00;;;3.70;;
51686;SDS011;37774;52.192;4.584;2022-08-03T04:21:58;6.95;;;2.72;;
51686;SDS011;37774;52.192;4.584;2022-08-03T04:24:29;9.95;;;3.35;;
51686;SDS011;37774;52.192;4.584;2022-08-03T04:26:59;9.55;;;3.15;;
51686;SDS011;37774;52.192;4.584;2022-08-03T04:29:32;18.75;;;4.32;;
51686;SDS011;37774;52.192;4.584;2022-08-03T04:32:02;20.17;;;3.03;;
51686;SDS011;37774;52.192;4.584;2022-08-03T04:34:31;16.23;;;3.40;;
51686;SDS011;37774;52.192;4.584;2022-08-03T04:36:59;14.07;;;3.28;;
51686;SDS011;37774;52.192;4.584;2022-08-03T04:39:29;12.27;;;3.28;;
51686;SDS011;37774;52.192;4.584;2022-08-03T04:41:59;18.85;;;3.33;;
51686;SDS011;37774;52.192;4.584;2022-08-03T04:44:28;15.48;;;3.45;;
51686;SDS011;37774;52.192;4.584;2022-08-03T04:47:01;12.93;;;3.35;;
51686;SDS011;37774;52.192;4.584;2022-08-03T04:49:28;16.73;;;3.03;;
51686;SDS011;37774;52.192;4.584;2022-08-03T04:51:55;13.23;;;3.10;;
51686;SDS011;37774;52.192;4.584;2022-08-03T04:54:22;16.92;;;3.55;;
51686;SDS011;37774;52.192;4.584;2022-08-03T04:56:49;14.82;;;3.78;;
51686;SDS011;37774;52.192;4.584;2022-08-03T04:59:16;11.43;;;3.88;;
51686;SDS011;37774;52.192;4.584;2022-08-03T05:01:44;23.45;;;2.90;;
51686;SDS011;37774;52.192;4.584;2022-08-03T05:04:11;14.00;;;3.65;;
51686;SDS011;37774;52.192;4.584;2022-08-03T05:06:37;13.55;;;4.10;;
51686;SDS011;37774;52.192;4.584;2022-08-03T05:09:04;19.00;;;3.45;;
51686;SDS011;37774;52.192;4.584;2022-08-03T05:11:31;8.20;;;3.33;;
51686;SDS011;37774;52.192;4.584;2022-08-03T05:13:58;13.43;;;3.00;;
51686;SDS011;37774;52.192;4.584;2022-08-03T05:16:24;19.67;;;3.30;;
51686;SDS011;37774;52.192;4.584;2022-08-03T05:18:52;16.95;;;3.88;;
51686;SDS011;37774;52.192;4.584;2022-08-03T05:21:19;12.98;;;3.55;;
51686;SDS011;37774;52.192;4.584;2022-08-03T05:23:46;20.98;;;4.00;;
51686;SDS011;37774;52.192;4.584;2022-08-03T05:26:13;13.00;;;3.30;;
51686;SDS011;37774;52.192;4.584;2022-08-03T05:28:39;24.98;;;3.35;;
51686;SDS011;37774;52.192;4.584;2022-08-03T05:31:06;13.02;;;4.03;;
51686;SDS011;37774;52.192;4.584;2022-08-03T05:33:33;15.27;;;4.50;;
51686;SDS011;37774;52.192;4.584;2022-08-03T05:36:01;11.77;;;3.70;;
51686;SDS011;37774;52.192;4.584;2022-08-03T05:38:28;14.43;;;3.67;;
51686;SDS011;37774;52.192;4.584;2022-08-03T05:40:55;18.98;;;5.05;;
51686;SDS011;37774;52.192;4.584;2022-08-03T05:43:23;16.13;;;4.07;;
51686;SDS011;37774;52.192;4.584;2022-08-03T05:45:50;20.90;;;5.22;;
51686;SDS011;37774;52.192;4.584;2022-08-03T05:48:16;20.38;;;4.32;;
51686;SDS011;37774;52.192;4.584;2022-08-03T05:50:43;12.93;;;4.35;;
51686;SDS011;37774;52.192;4.584;2022-08-03T05:53:11;21.38;;;4.90;;
51686;SDS011;37774;52.192;4.584;2022-08-03T05:55:38;21.02;;;4.93;;
51686;SDS011;37774;52.192;4.584;2022-08-03T05:58:05;23.48;;;5.55;;
51686;SDS011;37774;52.192;4.584;2022-08-03T06:00:31;16.73;;;5.85;;
51686;SDS011;37774;52.192;4.584;2022-08-03T06:02:58;20.33;;;5.32;;
51686;SDS011;37774;52.192;4.584;2022-08-03T06:05:25;19.02;;;5.28;;
51686;SDS011;37774;52.192;4.584;2022-08-03T06:07:52;25.20;;;6.20;;
51686;SDS011;37774;52.192;4.584;2022-08-03T06:10:20;22.55;;;5.13;;
51686;SDS011;37774;52.192;4.584;2022-08-03T06:12:47;13.75;;;5.00;;
51686;SDS011;37774;52.192;4.584;2022-08-03T06:15:16;11.68;;;5.38;;
51686;SDS011;37774;52.192;4.584;2022-08-03T06:17:44;12.10;;;5.03;;
51686;SDS011;37774;52.192;4.584;2022-08-03T06:20:12;22.48;;;6.25;;
51686;SDS011;37774;52.192;4.584;2022-08-03T06:22:40;20.30;;;6.72;;
51686;SDS011;37774;52.192;4.584;2022-08-03T06:25:07;18.17;;;6.32;;
51686;SDS011;37774;52.192;4.584;2022-08-03T06:27:36;23.67;;;7.80;;
51686;SDS011;37774;52.192;4.584;2022-08-03T06:30:04;28.48;;;7.68;;
51686;SDS011;37774;52.192;4.584;2022-08-03T06:32:32;30.90;;;8.00;;
51686;SDS011;37774;52.192;4.584;2022-08-03T06:34:59;18.95;;;6.97;;
51686;SDS011;37774;52.192;4.584;2022-08-03T06:37:26;35.28;;;8.55;;
51686;SDS011;37774;52.192;4.584;2022-08-03T06:39:53;21.95;;;8.07;;
51686;SDS011;37774;52.192;4.584;2022-08-03T06:42:20;15.80;;;7.60;;
51686;SDS011;37774;52.192;4.584;2022-08-03T06:44:48;30.85;;;8.20;;
51686;SDS011;37774;52.192;4.584;2022-08-03T06:47:15;23.63;;;7.50;;
51686;SDS011;37774;52.192;4.584;2022-08-03T06:49:42;20.33;;;8.23;;
51686;SDS011;37774;52.192;4.584;2022-08-03T06:52:09;20.05;;;8.05;;
51686;SDS011;37774;52.192;4.584;2022-08-03T06:54:35;19.33;;;8.68;;
51686;SDS011;37774;52.192;4.584;2022-08-03T06:57:02;33.15;;;9.27;;
51686;SDS011;37774;52.192;4.584;2022-08-03T06:59:30;27.20;;;11.60;;
51686;SDS011;37774;52.192;4.584;2022-08-03T07:01:58;19.95;;;8.75;;
51686;SDS011;37774;52.192;4.584;2022-08-03T07:04:25;28.80;;;10.05;;
51686;SDS011;37774;52.192;4.584;2022-08-03T07:06:52;20.85;;;10.00;;
51686;SDS011;37774;52.192;4.584;2022-08-03T07:09:19;22.23;;;10.93;;
51686;SDS011;37774;52.192;4.584;2022-08-03T07:11:46;18.48;;;9.15;;
51686;SDS011;37774;52.192;4.584;2022-08-03T07:14:12;31.15;;;10.70;;
51686;SDS011;37774;52.192;4.584;2022-08-03T07:16:39;30.60;;;11.80;;
51686;SDS011;37774;52.192;4.584;2022-08-03T07:19:07;29.40;;;12.75;;
51686;SDS011;37774;52.192;4.584;2022-08-03T07:21:34;26.15;;;12.60;;
51686;SDS011;37774;52.192;4.584;2022-08-03T07:24:01;23.65;;;11.80;;
51686;SDS011;37774;52.192;4.584;2022-08-03T07:26:28;26.95;;;11.82;;
51686;SDS011;37774;52.192;4.584;2022-08-03T07:28:55;24.80;;;12.18;;
51686;SDS011;37774;52.192;4.584;2022-08-03T07:31:21;25.63;;;10.85;;
51686;SDS011;37774;52.192;4.584;2022-08-03T07:33:48;27.05;;;11.60;;
51686;SDS011;37774;52.192;4.584;2022-08-03T07:36:16;27.90;;;10.88;;
51686;SDS011;37774;52.192;4.584;2022-08-03T07:38:43;19.83;;;8.88;;
51686;SDS011;37774;52.192;4.584;2022-08-03T07:41:09;27.67;;;9.68;;
51686;SDS011;37774;52.192;4.584;2022-08-03T07:43:36;19.63;;;9.15;;
51686;SDS011;37774;52.192;4.584;2022-08-03T07:46:03;19.83;;;9.63;;
51686;SDS011;37774;52.192;4.584;2022-08-03T07:48:30;27.25;;;10.00;;
51686;SDS011;37774;52.192;4.584;2022-08-03T07:50:56;26.73;;;9.23;;
51686;SDS011;37774;52.192;4.584;2022-08-03T07:53:25;20.75;;;8.35;;
51686;SDS011;37774;52.192;4.584;2022-08-03T07:55:51;29.10;;;9.40;;
51686;SDS011;37774;52.192;4.584;2022-08-03T07:58:18;37.97;;;9.82;;
51686;SDS011;37774;52.192;4.584;2022-08-03T08:00:46;17.80;;;7.40;;
51686;SDS011;37774;52.192;4.584;2022-08-03T08:03:15;18.90;;;8.13;;
51686;SDS011;37774;52.192;4.584;2022-08-03T08:05:42;14.48;;;7.35;;
51686;SDS011;37774;52.192;4.584;2022-08-03T08:08:09;20.30;;;7.63;;
51686;SDS011;37774;52.192;4.584;2022-08-03T08:10:37;24.58;;;8.35;;
51686;SDS011;37774;52.192;4.584;2022-08-03T08:13:04;24.23;;;7.80;;
51686;SDS011;37774;52.192;4.584;2022-08-03T08:15:30;19.73;;;6.95;;
51686;SDS011;37774;52.192;4.584;2022-08-03T08:17:58;20.50;;;8.63;;
51686;SDS011;37774;52.192;4.584;2022-08-03T08:20:27;16.60;;;7.32;;
51686;SDS011;37774;52.192;4.584;2022-08-03T08:22:54;16.02;;;8.05;;
51686;SDS011;37774;52.192;4.584;2022-08-03T08:25:23;20.63;;;6.55;;
51686;SDS011;37774;52.192;4.584;2022-08-03T08:27:51;9.77;;;5.97;;
51686;SDS011;37774;52.192;4.584;2022-08-03T08:30:19;20.67;;;7.57;;
51686;SDS011;37774;52.192;4.584;2022-08-03T08:32:47;19.15;;;7.65;;
51686;SDS011;37774;52.192;4.584;2022-08-03T08:35:15;21.42;;;7.32;;
51686;SDS011;37774;52.192;4.584;2022-08-03T08:37:42;18.83;;;7.55;;
51686;SDS011;37774;52.192;4.584;2022-08-03T08:40:09;21.58;;;5.88;;
51686;SDS011;37774;52.192;4.584;2022-08-03T08:42:37;18.02;;;6.07;;
51686;SDS011;37774;52.192;4.584;2022-08-03T08:45:07;17.33;;;6.63;;
51686;SDS011;37774;52.192;4.584;2022-08-03T08:47:36;19.65;;;5.32;;
51686;SDS011;37774;52.192;4.584;2022-08-03T08:50:04;23.00;;;4.90;;
51686;SDS011;37774;52.192;4.584;2022-08-03T08:52:33;24.05;;;5.85;;
51686;SDS011;37774;52.192;4.584;2022-08-03T08:55:01;20.77;;;5.50;;
51686;SDS011;37774;52.192;4.584;2022-08-03T08:57:32;19.92;;;6.38;;
51686;SDS011;37774;52.192;4.584;2022-08-03T09:00:02;18.98;;;6.90;;
51686;SDS011;37774;52.192;4.584;2022-08-03T09:02:32;15.63;;;5.32;;
51686;SDS011;37774;52.192;4.584;2022-08-03T09:04:59;15.85;;;5.20;;
51686;SDS011;37774;52.192;4.584;2022-08-03T09:07:26;16.25;;;5.25;;
51686;SDS011;37774;52.192;4.584;2022-08-03T09:09:54;18.40;;;6.05;;
51686;SDS011;37774;52.192;4.584;2022-08-03T09:12:21;8.85;;;5.15;;
51686;SDS011;37774;52.192;4.584;2022-08-03T09:14:47;27.50;;;4.78;;
51686;SDS011;37774;52.192;4.584;2022-08-03T09:17:15;17.33;;;5.78;;
51686;SDS011;37774;52.192;4.584;2022-08-03T09:19:43;14.35;;;5.18;;
51686;SDS011;37774;52.192;4.584;2022-08-03T09:22:30;17.70;;;5.50;;
51686;SDS011;37774;52.192;4.584;2022-08-03T09:24:58;10.43;;;4.85;;
51686;SDS011;37774;52.192;4.584;2022-08-03T09:27:27;22.85;;;5.18;;
51686;SDS011;37774;52.192;4.584;2022-08-03T09:29:54;15.75;;;4.68;;
51686;SDS011;37774;52.192;4.584;2022-08-03T09:32:23;10.98;;;4.13;;
51686;SDS011;37774;52.192;4.584;2022-08-03T09:34:51;17.45;;;5.50;;
51686;SDS011;37774;52.192;4.584;2022-08-03T09:37:19;14.52;;;4.88;;
51686;SDS011;37774;52.192;4.584;2022-08-03T09:39:49;13.73;;;4.22;;
51686;SDS011;37774;52.192;4.584;2022-08-03T09:42:17;13.38;;;4.95;;
51686;SDS011;37774;52.192;4.584;2022-08-03T09:44:47;20.83;;;4.13;;
51686;SDS011;37774;52.192;4.584;2022-08-03T09:47:15;16.55;;;5.57;;
51686;SDS011;37774;52.192;4.584;2022-08-03T09:49:57;9.20;;;3.13;;
51686;SDS011;37774;52.192;4.584;2022-08-03T09:52:29;13.60;;;3.65;;
51686;SDS011;37774;52.192;4.584;2022-08-03T09:54:57;16.55;;;4.47;;
51686;SDS011;37774;52.192;4.584;2022-08-03T09:57:25;12.25;;;4.03;;
51686;SDS011;37774;52.192;4.584;2022-08-03T10:00:05;12.02;;;3.70;;
51686;SDS011;37774;52.192;4.584;2022-08-03T10:02:34;12.45;;;3.60;;
51686;SDS011;37774;52.192;4.584;2022-08-03T10:05:03;14.27;;;3.38;;
51686;SDS011;37774;52.192;4.584;2022-08-03T10:07:40;11.80;;;2.85;;
51686;SDS011;37774;52.192;4.584;2022-08-03T10:10:08;16.88;;;3.28;;
51686;SDS011;37774;52.192;4.584;2022-08-03T10:12:35;18.15;;;3.95;;
51686;SDS011;37774;52.192;4.584;2022-08-03T10:15:03;9.65;;;3.50;;
51686;SDS011;37774;52.192;4.584;2022-08-03T10:17:30;16.55;;;4.30;;
51686;SDS011;37774;52.192;4.584;2022-08-03T10:19:57;10.27;;;2.83;;
51686;SDS011;37774;52.192;4.584;2022-08-03T10:22:26;10.30;;;3.13;;
51686;SDS011;37774;52.192;4.584;2022-08-03T10:24:55;9.98;;;2.95;;
51686;SDS011;37774;52.192;4.584;2022-08-03T10:27:25;14.73;;;3.22;;
51686;SDS011;37774;52.192;4.584;2022-08-03T10:29:57;20.33;;;3.47;;
51686;SDS011;37774;52.192;4.584;2022-08-03T10:32:27;12.57;;;3.28;;
51686;SDS011;37774;52.192;4.584;2022-08-03T10:34:58;17.70;;;2.92;;
51686;SDS011;37774;52.192;4.584;2022-08-03T10:37:31;12.82;;;2.78;;
51686;SDS011;37774;52.192;4.584;2022-08-03T10:40:06;19.23;;;3.28;;
51686;SDS011;37774;52.192;4.584;2022-08-03T10:42:35;17.00;;;3.30;;
51686;SDS011;37774;52.192;4.584;2022-08-03T10:45:03;17.23;;;3.53;;
51686;SDS011;37774;52.192;4.584;2022-08-03T10:47:32;16.83;;;2.92;;
51686;SDS011;37774;52.192;4.584;2022-08-03T10:49:59;23.77;;;3.50;;
51686;SDS011;37774;52.192;4.584;2022-08-03T10:52:26;21.10;;;3.15;;
51686;SDS011;37774;52.192;4.584;2022-08-03T10:54:55;16.42;;;2.25;;
51686;SDS011;37774;52.192;4.584;2022-08-03T10:57:49;13.45;;;3.03;;
51686;SDS011;37774;52.192;4.584;2022-08-03T11:00:18;12.07;;;2.05;;
51686;SDS011;37774;52.192;4.584;2022-08-03T11:03:02;16.15;;;2.88;;
51686;SDS011;37774;52.192;4.584;2022-08-03T11:05:32;8.60;;;2.10;;
51686;SDS011;37774;52.192;4.584;2022-08-03T11:10:47;7.90;;;2.92;;
51686;SDS011;37774;52.192;4.584;2022-08-03T11:13:16;13.10;;;2.83;;
51686;SDS011;37774;52.192;4.584;2022-08-03T11:15:44;16.02;;;2.80;;
51686;SDS011;37774;52.192;4.584;2022-08-03T11:18:13;8.38;;;2.08;;
51686;SDS011;37774;52.192;4.584;2022-08-03T11:20:44;11.25;;;2.42;;
51686;SDS011;37774;52.192;4.584;2022-08-03T11:23:12;16.90;;;2.72;;
51686;SDS011;37774;52.192;4.584;2022-08-03T11:28:36;14.85;;;2.22;;
51686;SDS011;37774;52.192;4.584;2022-08-03T11:34:12;13.52;;;3.47;;
51686;SDS011;37774;52.192;4.584;2022-08-03T11:39:52;15.82;;;2.83;;
51686;SDS011;37774;52.192;4.584;2022-08-03T11:42:41;10.82;;;2.33;;
51686;SDS011;37774;52.192;4.584;2022-08-03T11:45:12;14.85;;;2.65;;
51686;SDS011;37774;52.192;4.584;2022-08-03T11:47:39;13.93;;;2.50;;
51686;SDS011;37774;52.192;4.584;2022-08-03T11:50:07;15.13;;;3.20;;
51686;SDS011;37774;52.192;4.584;2022-08-03T11:52:35;12.23;;;2.97;;
51686;SDS011;37774;52.192;4.584;2022-08-03T11:55:07;8.68;;;1.90;;
51686;SDS011;37774;52.192;4.584;2022-08-03T11:57:35;15.77;;;2.28;;
51686;SDS011;37774;52.192;4.584;2022-08-03T12:00:04;12.32;;;3.75;;
51686;SDS011;37774;52.192;4.584;2022-08-03T12:02:52;14.43;;;2.53;;
51686;SDS011;37774;52.192;4.584;2022-08-03T12:05:36;9.70;;;1.80;;
51686;SDS011;37774;52.192;4.584;2022-08-03T12:08:07;6.85;;;2.17;;
51686;SDS011;37774;52.192;4.584;2022-08-03T12:10:35;15.32;;;2.33;;
51686;SDS011;37774;52.192;4.584;2022-08-03T12:13:04;15.35;;;1.70;;
51686;SDS011;37774;52.192;4.584;2022-08-03T12:15:34;13.68;;;1.67;;
51686;SDS011;37774;52.192;4.584;2022-08-03T12:18:03;12.32;;;2.50;;
51686;SDS011;37774;52.192;4.584;2022-08-03T12:20:38;10.45;;;2.10;;
51686;SDS011;37774;52.192;4.584;2022-08-03T12:23:05;14.30;;;1.77;;
51686;SDS011;37774;52.192;4.584;2022-08-03T12:25:32;6.47;;;1.67;;
51686;SDS011;37774;52.192;4.584;2022-08-03T12:28:10;9.43;;;1.38;;
51686;SDS011;37774;52.192;4.584;2022-08-03T12:30:42;10.82;;;2.15;;
51686;SDS011;37774;52.192;4.584;2022-08-03T12:33:15;12.60;;;2.17;;
51686;SDS011;37774;52.192;4.584;2022-08-03T12:35:45;7.30;;;1.70;;
51686;SDS011;37774;52.192;4.584;2022-08-03T12:38:17;16.42;;;2.15;;
51686;SDS011;37774;52.192;4.584;2022-08-03T12:40:45;8.75;;;1.52;;
51686;SDS011;37774;52.192;4.584;2022-08-03T12:43:20;12.27;;;1.90;;
51686;SDS011;37774;52.192;4.584;2022-08-03T12:45:48;10.85;;;1.70;;
51686;SDS011;37774;52.192;4.584;2022-08-03T12:48:15;13.35;;;1.60;;
51686;SDS011;37774;52.192;4.584;2022-08-03T12:50:41;9.43;;;2.58;;
51686;SDS011;37774;52.192;4.584;2022-08-03T12:53:09;6.68;;;1.40;;
51686;SDS011;37774;52.192;4.584;2022-08-03T12:55:36;8.07;;;1.23;;
51686;SDS011;37774;52.192;4.584;2022-08-03T12:58:04;7.00;;;1.25;;
51686;SDS011;37774;52.192;4.584;2022-08-03T13:00:35;13.23;;;1.67;;
51686;SDS011;37774;52.192;4.584;2022-08-03T13:03:04;11.05;;;1.75;;
51686;SDS011;37774;52.192;4.584;2022-08-03T13:05:41;17.40;;;2.80;;
51686;SDS011;37774;52.192;4.584;2022-08-03T13:08:16;4.05;;;1.42;;
51686;SDS011;37774;52.192;4.584;2022-08-03T13:10:43;10.73;;;1.55;;
51686;SDS011;37774;52.192;4.584;2022-08-03T13:13:10;19.08;;;2.05;;
51686;SDS011;37774;52.192;4.584;2022-08-03T13:15:37;12.85;;;3.03;;
51686;SDS011;37774;52.192;4.584;2022-08-03T13:18:05;10.38;;;2.20;;
51686;SDS011;37774;52.192;4.584;2022-08-03T13:20:32;6.00;;;1.50;;
51686;SDS011;37774;52.192;4.584;2022-08-03T13:22:59;5.80;;;2.15;;
51686;SDS011;37774;52.192;4.584;2022-08-03T13:25:26;22.05;;;2.20;;
51686;SDS011;37774;52.192;4.584;2022-08-03T13:27:53;10.20;;;2.17;;
51686;SDS011;37774;52.192;4.584;2022-08-03T13:30:19;14.20;;;2.20;;
51686;SDS011;37774;52.192;4.584;2022-08-03T13:32:46;16.83;;;2.33;;
51686;SDS011;37774;52.192;4.584;2022-08-03T13:35:14;9.32;;;1.73;;
51686;SDS011;37774;52.192;4.584;2022-08-03T13:37:41;11.50;;;2.17;;
51686;SDS011;37774;52.192;4.584;2022-08-03T13:40:08;5.55;;;1.67;;
51686;SDS011;37774;52.192;4.584;2022-08-03T13:42:35;7.18;;;2.72;;
51686;SDS011;37774;52.192;4.584;2022-08-03T13:45:02;20.30;;;2.53;;
51686;SDS011;37774;52.192;4.584;2022-08-03T13:47:30;5.43;;;1.50;;
51686;SDS011;37774;52.192;4.584;2022-08-03T13:49:57;7.05;;;1.35;;
51686;SDS011;37774;52.192;4.584;2022-08-03T13:52:25;14.88;;;2.15;;
51686;SDS011;37774;52.192;4.584;2022-08-03T13:54:51;4.28;;;1.60;;
51686;SDS011;37774;52.192;4.584;2022-08-03T13:57:18;9.05;;;2.75;;
51686;SDS011;37774;52.192;4.584;2022-08-03T13:59:45;14.20;;;2.20;;
51686;SDS011;37774;52.192;4.584;2022-08-03T14:02:11;12.38;;;2.08;;
51686;SDS011;37774;52.192;4.584;2022-08-03T14:04:38;9.82;;;1.70;;
51686;SDS011;37774;52.192;4.584;2022-08-03T14:07:05;12.30;;;1.90;;
51686;SDS011;37774;52.192;4.584;2022-08-03T14:09:33;5.07;;;1.27;;
51686;SDS011;37774;52.192;4.584;2022-08-03T14:12:00;8.88;;;1.63;;
51686;SDS011;37774;52.192;4.584;2022-08-03T14:14:26;9.35;;;1.85;;
51686;SDS011;37774;52.192;4.584;2022-08-03T14:16:53;9.18;;;1.40;;
51686;SDS011;37774;52.192;4.584;2022-08-03T14:19:20;9.68;;;2.33;;
51686;SDS011;37774;52.192;4.584;2022-08-03T14:21:46;5.05;;;1.10;;
51686;SDS011;37774;52.192;4.584;2022-08-03T14:24:13;2.65;;;1.38;;
51686;SDS011;37774;52.192;4.584;2022-08-03T14:26:41;5.65;;;1.42;;
51686;SDS011;37774;52.192;4.584;2022-08-03T14:29:08;6.05;;;1.05;;
51686;SDS011;37774;52.192;4.584;2022-08-03T14:31:35;10.60;;;1.00;;
51686;SDS011;37774;52.192;4.584;2022-08-03T14:34:02;4.40;;;0.80;;
51686;SDS011;37774;52.192;4.584;2022-08-03T14:36:28;10.05;;;1.50;;
51686;SDS011;37774;52.192;4.584;2022-08-03T14:38:55;3.35;;;1.20;;
51686;SDS011;37774;52.192;4.584;2022-08-03T14:41:22;6.03;;;1.17;;
51686;SDS011;37774;52.192;4.584;2022-08-03T14:43:50;4.22;;;0.73;;
51686;SDS011;37774;52.192;4.584;2022-08-03T14:46:17;8.40;;;1.50;;
51686;SDS011;37774;52.192;4.584;2022-08-03T14:48:43;13.10;;;1.95;;
51686;SDS011;37774;52.192;4.584;2022-08-03T14:51:10;9.05;;;2.00;;
51686;SDS011;37774;52.192;4.584;2022-08-03T14:53:37;5.95;;;1.50;;
51686;SDS011;37774;52.192;4.584;2022-08-03T14:56:04;8.20;;;1.15;;
51686;SDS011;37774;52.192;4.584;2022-08-03T14:58:31;12.77;;;2.28;;
51686;SDS011;37774;52.192;4.584;2022-08-03T15:00:59;4.55;;;1.05;;
51686;SDS011;37774;52.192;4.584;2022-08-03T15:03:25;4.22;;;0.70;;